createdAt,value
2019-03-10T00:00:08.685Z,22.71
2019-03-10T00:01:08.662Z,22.75
2019-03-10T00:02:10.442Z,22.70
2019-03-10T00:03:08.630Z,22.78
2019-03-10T00:04:08.641Z,22.70
2019-03-10T00:05:08.625Z,22.66
2019-03-10T00:06:08.608Z,22.71
2019-03-10T00:07:08.585Z,22.71
2019-03-10T00:08:08.575Z,22.73
2019-03-10T00:09:08.570Z,22.71
2019-03-10T00:10:08.555Z,22.67
2019-03-10T00:11:08.558Z,22.70
2019-03-10T00:12:08.529Z,22.70
2019-03-10T00:13:08.520Z,22.71
2019-03-10T00:14:08.507Z,22.61
2019-03-10T00:15:08.541Z,22.73
2019-03-10T00:16:08.514Z,22.75
2019-03-10T00:17:08.487Z,22.78
2019-03-10T00:18:08.462Z,22.66
2019-03-10T00:19:08.454Z,22.69
2019-03-10T00:20:08.439Z,22.70
2019-03-10T00:21:08.444Z,22.70
2019-03-10T00:22:08.419Z,22.76
2019-03-10T00:23:08.440Z,22.70
2019-03-10T00:24:08.397Z,22.69
2019-03-10T00:25:08.392Z,22.78
2019-03-10T00:26:08.410Z,22.73
2019-03-10T00:27:08.361Z,22.66
2019-03-10T00:28:08.358Z,22.73
2019-03-10T00:29:08.339Z,22.70
2019-03-10T00:30:08.328Z,22.71
2019-03-10T00:31:08.334Z,22.69
2019-03-10T00:32:08.310Z,22.67
2019-03-10T00:33:08.300Z,22.71
2019-03-10T00:34:08.290Z,22.73
2019-03-10T00:35:08.278Z,22.73
2019-03-10T00:36:08.274Z,22.64
2019-03-10T00:37:08.249Z,22.64
2019-03-10T00:38:08.241Z,22.63
2019-03-10T00:39:08.252Z,22.75
2019-03-10T00:40:08.216Z,22.67
2019-03-10T00:41:08.219Z,22.73
2019-03-10T00:42:08.194Z,22.67
2019-03-10T00:43:08.182Z,22.71
2019-03-10T00:44:08.169Z,22.66
2019-03-10T00:45:08.197Z,22.78
2019-03-10T00:46:08.167Z,22.71
2019-03-10T00:47:08.135Z,22.76
2019-03-10T00:48:08.138Z,22.76
2019-03-10T00:49:08.145Z,22.76
2019-03-10T00:50:08.111Z,22.76
2019-03-10T00:51:08.110Z,22.73
2019-03-10T00:52:08.080Z,22.67
2019-03-10T00:53:08.072Z,22.71
2019-03-10T00:54:08.097Z,22.66
2019-03-10T00:55:08.047Z,22.71
2019-03-10T00:56:08.046Z,22.67
2019-03-10T00:57:08.023Z,22.70
2019-03-10T00:58:08.014Z,22.64
2019-03-10T00:59:08.011Z,22.69
2019-03-10T01:00:07.990Z,22.76
2019-03-10T01:01:07.991Z,22.69
2019-03-10T01:02:07.987Z,22.67
2019-03-10T01:03:07.959Z,22.67
2019-03-10T01:04:07.945Z,22.64
2019-03-10T01:05:07.951Z,22.70
2019-03-10T01:06:07.937Z,22.66
2019-03-10T01:07:07.918Z,22.61
2019-03-10T01:08:07.919Z,22.71
2019-03-10T01:09:07.889Z,22.63
2019-03-10T01:10:07.878Z,22.67
2019-03-10T01:11:07.881Z,22.67
2019-03-10T01:12:07.856Z,22.70
2019-03-10T01:13:07.889Z,22.67
2019-03-10T01:14:07.832Z,22.73
2019-03-10T01:15:07.824Z,22.63
2019-03-10T01:16:07.829Z,22.64
2019-03-10T01:17:07.805Z,22.63
2019-03-10T01:18:07.787Z,22.75
2019-03-10T01:19:07.776Z,22.63
2019-03-10T01:20:07.776Z,22.63
2019-03-10T01:21:07.767Z,22.67
2019-03-10T01:22:07.742Z,22.59
2019-03-10T01:23:07.733Z,22.78
2019-03-10T01:24:07.723Z,22.59
2019-03-10T01:25:07.724Z,22.70
2019-03-10T01:26:07.884Z,22.57
2019-03-10T01:27:07.687Z,22.60
2019-03-10T01:28:07.681Z,22.64
2019-03-10T01:29:07.671Z,22.63
2019-03-10T01:30:07.653Z,22.69
2019-03-10T01:31:07.641Z,22.63
2019-03-10T01:32:07.661Z,22.67
2019-03-10T01:33:07.623Z,22.70
2019-03-10T01:34:07.626Z,22.67
2019-03-10T01:35:07.608Z,22.63
2019-03-10T01:36:07.584Z,22.66
2019-03-10T01:37:07.588Z,22.60
2019-03-10T01:38:07.585Z,22.66
2019-03-10T01:39:07.551Z,22.64
2019-03-10T01:40:07.540Z,22.54
2019-03-10T01:41:07.531Z,22.66
2019-03-10T01:42:07.530Z,22.61
2019-03-10T01:43:07.507Z,22.67
2019-03-10T01:44:07.514Z,22.64
2019-03-10T01:45:07.494Z,22.69
2019-03-10T01:46:07.474Z,22.66
2019-03-10T01:47:07.488Z,22.66
2019-03-10T01:48:07.452Z,22.69
2019-03-10T01:49:07.438Z,22.61
2019-03-10T01:50:07.429Z,22.63
2019-03-10T01:51:07.435Z,22.61
2019-03-10T01:52:07.417Z,22.61
2019-03-10T01:53:07.394Z,22.55
2019-03-10T01:54:07.421Z,22.63
2019-03-10T01:55:07.374Z,22.66
2019-03-10T01:56:07.371Z,22.63
2019-03-10T01:57:07.399Z,22.66
2019-03-10T01:58:07.349Z,22.66
2019-03-10T01:59:07.328Z,22.66
2019-03-10T02:00:07.316Z,22.69
2019-03-10T02:01:07.304Z,22.64
2019-03-10T02:02:07.309Z,22.64
2019-03-10T02:03:07.321Z,22.64
2019-03-10T02:04:07.271Z,22.55
2019-03-10T02:05:07.264Z,22.69
2019-03-10T02:06:07.248Z,22.54
2019-03-10T02:07:07.249Z,22.55
2019-03-10T02:08:07.226Z,22.67
2019-03-10T02:09:07.215Z,22.60
2019-03-10T02:10:07.243Z,22.66
2019-03-10T02:11:07.192Z,22.66
2019-03-10T02:12:07.192Z,22.69
2019-03-10T02:13:07.170Z,22.66
2019-03-10T02:14:07.165Z,22.55
2019-03-10T02:15:07.148Z,22.54
2019-03-10T02:16:07.143Z,22.67
2019-03-10T02:17:07.137Z,22.64
2019-03-10T02:18:07.121Z,22.54
2019-03-10T02:19:07.104Z,22.57
2019-03-10T02:20:07.113Z,22.69
2019-03-10T02:21:07.083Z,22.69
2019-03-10T02:22:07.098Z,22.70
2019-03-10T02:23:07.059Z,22.59
2019-03-10T02:24:07.048Z,22.60
2019-03-10T02:25:07.035Z,22.55
2019-03-10T02:26:07.024Z,22.64
2019-03-10T02:27:07.029Z,22.55
2019-03-10T02:28:07.000Z,22.55
2019-03-10T02:29:06.996Z,22.61
2019-03-10T02:30:06.980Z,22.67
2019-03-10T02:31:06.978Z,22.55
2019-03-10T02:32:06.982Z,22.59
2019-03-10T02:33:06.963Z,22.60
2019-03-10T02:34:06.935Z,22.67
2019-03-10T02:35:06.951Z,22.54
2019-03-10T02:36:06.917Z,22.67
2019-03-10T02:37:06.923Z,22.63
2019-03-10T02:38:06.892Z,22.64
2019-03-10T02:39:06.878Z,22.63
2019-03-10T02:40:06.868Z,22.67
2019-03-10T02:41:06.868Z,22.61
2019-03-10T02:42:06.859Z,22.67
2019-03-10T02:43:06.860Z,22.63
2019-03-10T02:44:06.822Z,22.66
2019-03-10T02:45:06.814Z,22.61
2019-03-10T02:46:06.799Z,22.54
2019-03-10T02:47:06.809Z,22.51
2019-03-10T02:48:06.782Z,22.63
2019-03-10T02:49:06.767Z,22.63
2019-03-10T02:50:06.756Z,22.63
2019-03-10T02:51:06.744Z,22.59
2019-03-10T02:52:06.766Z,22.61
2019-03-10T02:53:06.736Z,22.63
2019-03-10T02:54:06.711Z,22.57
2019-03-10T02:55:06.722Z,22.59
2019-03-10T02:56:06.709Z,22.60
2019-03-10T02:57:06.687Z,22.63
2019-03-10T02:58:06.679Z,22.63
2019-03-10T02:59:06.688Z,22.59
2019-03-10T03:00:06.655Z,22.63
2019-03-10T03:01:06.633Z,22.57
2019-03-10T03:02:06.642Z,22.57
2019-03-10T03:03:06.623Z,22.63
2019-03-10T03:04:06.604Z,22.57
2019-03-10T03:05:06.684Z,22.60
2019-03-10T03:06:06.600Z,22.63
2019-03-10T03:07:06.563Z,22.67
2019-03-10T03:08:06.593Z,22.64
2019-03-10T03:09:06.542Z,22.63
2019-03-10T03:10:06.540Z,22.67
2019-03-10T03:11:06.522Z,22.61
2019-03-10T03:12:06.509Z,22.66
2019-03-10T03:13:06.519Z,22.55
2019-03-10T03:14:06.573Z,22.64
2019-03-10T03:15:06.475Z,22.63
2019-03-10T03:16:06.465Z,22.64
2019-03-10T03:17:06.450Z,22.59
2019-03-10T03:18:06.457Z,22.64
2019-03-10T03:19:06.479Z,22.67
2019-03-10T03:20:06.428Z,22.63
2019-03-10T03:21:06.407Z,22.63
2019-03-10T03:22:06.397Z,22.59
2019-03-10T03:23:06.400Z,22.66
2019-03-10T03:24:06.374Z,22.64
2019-03-10T03:25:06.366Z,22.63
2019-03-10T03:26:06.368Z,22.64
2019-03-10T03:27:06.342Z,22.60
2019-03-10T03:28:06.340Z,22.66
2019-03-10T03:29:06.319Z,22.66
2019-03-10T03:30:06.360Z,22.64
2019-03-10T03:31:06.340Z,22.57
2019-03-10T03:32:06.295Z,22.66
2019-03-10T03:33:06.288Z,22.64
2019-03-10T03:34:06.266Z,22.54
2019-03-10T03:35:06.253Z,22.64
2019-03-10T03:36:06.238Z,22.61
2019-03-10T03:37:06.231Z,22.55
2019-03-10T03:38:06.240Z,22.64
2019-03-10T03:39:06.205Z,22.63
2019-03-10T03:40:06.193Z,22.55
2019-03-10T03:41:06.188Z,22.63
2019-03-10T03:42:06.201Z,22.60
2019-03-10T03:43:06.173Z,22.51
2019-03-10T03:44:06.168Z,22.63
2019-03-10T03:45:06.139Z,22.60
2019-03-10T03:46:06.127Z,22.64
2019-03-10T03:47:06.116Z,22.64
2019-03-10T03:48:06.128Z,22.63
2019-03-10T03:49:06.097Z,22.55
2019-03-10T03:50:06.087Z,22.66
2019-03-10T03:51:06.073Z,22.61
2019-03-10T03:52:06.074Z,22.63
2019-03-10T03:53:06.061Z,22.63
2019-03-10T03:54:06.045Z,22.59
2019-03-10T03:55:06.043Z,22.54
2019-03-10T03:56:08.058Z,22.61
2019-03-10T03:57:06.007Z,22.57
2019-03-10T03:58:06.010Z,22.64
2019-03-10T03:59:05.981Z,22.55
2019-03-10T04:00:05.973Z,22.60
2019-03-10T04:01:05.958Z,22.64
2019-03-10T04:02:05.947Z,22.61
2019-03-10T04:03:05.940Z,22.54
2019-03-10T04:04:06.023Z,22.61
2019-03-10T04:05:05.927Z,22.64
2019-03-10T04:06:05.919Z,22.63
2019-03-10T04:07:05.892Z,22.61
2019-03-10T04:08:05.880Z,22.63
2019-03-10T04:09:05.881Z,22.52
2019-03-10T04:10:05.865Z,22.57
2019-03-10T04:11:05.863Z,22.61
2019-03-10T04:12:05.837Z,22.57
2019-03-10T04:13:05.824Z,22.64
2019-03-10T04:14:05.825Z,22.64
2019-03-10T04:15:05.802Z,22.61
2019-03-10T04:16:12.801Z,22.61
2019-03-10T04:17:05.781Z,22.67
2019-03-10T04:18:05.775Z,22.60
2019-03-10T04:19:05.773Z,22.64
2019-03-10T04:20:05.746Z,22.63
2019-03-10T04:21:05.736Z,22.59
2019-03-10T04:22:05.736Z,22.61
2019-03-10T04:23:05.722Z,22.63
2019-03-10T04:24:05.726Z,22.60
2019-03-10T04:25:05.690Z,22.55
2019-03-10T04:26:05.680Z,22.59
2019-03-10T04:27:05.679Z,22.54
2019-03-10T04:28:05.680Z,22.64
2019-03-10T04:29:05.662Z,22.64
2019-03-10T04:30:05.660Z,22.60
2019-03-10T04:31:05.623Z,22.60
2019-03-10T04:32:05.614Z,22.54
2019-03-10T04:33:05.611Z,22.59
2019-03-10T04:34:05.601Z,22.64
2019-03-10T04:35:05.591Z,22.48
2019-03-10T04:36:05.566Z,22.63
2019-03-10T04:37:05.557Z,22.59
2019-03-10T04:38:05.545Z,22.59
2019-03-10T04:39:05.546Z,22.61
2019-03-10T04:40:05.523Z,22.59
2019-03-10T04:41:05.525Z,22.63
2019-03-10T04:42:05.500Z,22.60
2019-03-10T04:43:05.496Z,22.61
2019-03-10T04:44:05.490Z,22.67
2019-03-10T04:45:05.470Z,22.54
2019-03-10T04:46:05.462Z,22.64
2019-03-10T04:47:05.459Z,22.57
2019-03-10T04:48:05.434Z,22.48
2019-03-10T04:49:05.449Z,22.59
2019-03-10T04:50:05.412Z,22.64
2019-03-10T04:51:05.423Z,22.61
2019-03-10T04:52:05.413Z,22.57
2019-03-10T04:53:05.375Z,22.60
2019-03-10T04:54:05.432Z,22.61
2019-03-10T04:55:09.140Z,22.52
2019-03-10T04:56:05.351Z,22.63
2019-03-10T04:57:05.341Z,22.59
2019-03-10T04:58:05.321Z,22.55
2019-03-10T04:59:05.342Z,22.64
2019-03-10T05:00:05.298Z,22.59
2019-03-10T05:01:05.305Z,22.63
2019-03-10T05:02:05.286Z,22.61
2019-03-10T05:03:05.267Z,22.61
2019-03-10T05:04:05.267Z,22.52
2019-03-10T05:05:05.257Z,22.52
2019-03-10T05:06:05.261Z,22.55
2019-03-10T05:07:05.221Z,22.52
2019-03-10T05:08:05.212Z,22.52
2019-03-10T05:09:05.198Z,22.49
2019-03-10T05:10:05.197Z,22.67
2019-03-10T05:11:05.181Z,22.59
2019-03-10T05:12:05.182Z,22.57
2019-03-10T05:13:05.158Z,22.69
2019-03-10T05:14:05.169Z,22.60
2019-03-10T05:15:05.150Z,22.61
2019-03-10T05:16:05.123Z,22.55
2019-03-10T05:17:05.110Z,22.61
2019-03-10T05:18:05.121Z,22.55
2019-03-10T05:19:05.091Z,22.57
2019-03-10T05:20:05.086Z,22.51
2019-03-10T05:21:05.068Z,22.51
2019-03-10T05:22:05.052Z,22.49
2019-03-10T05:23:05.040Z,22.46
2019-03-10T05:24:05.033Z,22.57
2019-03-10T05:25:05.044Z,22.51
2019-03-10T05:26:05.010Z,22.51
2019-03-10T05:27:05.017Z,22.55
2019-03-10T05:28:04.985Z,22.51
2019-03-10T05:29:04.973Z,22.52
2019-03-10T05:30:04.976Z,22.51
2019-03-10T05:31:04.982Z,22.49
2019-03-10T05:32:04.952Z,22.55
2019-03-10T05:33:04.928Z,22.46
2019-03-10T05:34:04.918Z,22.52
2019-03-10T05:35:04.918Z,22.51
2019-03-10T05:36:04.899Z,22.59
2019-03-10T05:37:04.906Z,22.54
2019-03-10T05:38:04.878Z,22.57
2019-03-10T05:39:04.861Z,22.60
2019-03-10T05:40:04.864Z,22.49
2019-03-10T05:41:04.844Z,22.52
2019-03-10T05:42:04.829Z,22.49
2019-03-10T05:43:04.818Z,22.51
2019-03-10T05:44:04.822Z,22.51
2019-03-10T05:45:04.805Z,22.52
2019-03-10T05:46:04.786Z,22.54
2019-03-10T05:47:04.773Z,22.54
2019-03-10T05:48:04.762Z,22.52
2019-03-10T05:49:04.751Z,22.57
2019-03-10T05:50:04.773Z,22.49
2019-03-10T05:51:04.734Z,22.52
2019-03-10T05:52:04.718Z,22.60
2019-03-10T05:53:04.718Z,22.55
2019-03-10T05:54:04.696Z,22.55
2019-03-10T05:55:05.209Z,22.60
2019-03-10T05:56:04.675Z,22.54
2019-03-10T05:57:04.667Z,22.57
2019-03-10T05:58:04.653Z,22.52
2019-03-10T05:59:04.660Z,22.59
2019-03-10T06:00:04.678Z,22.49
2019-03-10T06:01:04.618Z,22.64
2019-03-10T06:02:04.604Z,22.52
2019-03-10T06:03:04.603Z,22.54
2019-03-10T06:04:04.580Z,22.57
2019-03-10T06:05:06.030Z,22.51
2019-03-10T06:06:04.580Z,22.57
2019-03-10T06:07:04.549Z,22.54
2019-03-10T06:08:04.540Z,22.54
2019-03-10T06:09:04.527Z,22.57
2019-03-10T06:10:04.521Z,22.51
2019-03-10T06:11:04.525Z,22.57
2019-03-10T06:12:04.498Z,22.49
2019-03-10T06:13:04.506Z,22.52
2019-03-10T06:14:04.509Z,22.52
2019-03-10T06:15:04.459Z,22.49
2019-03-10T06:16:04.460Z,22.52
2019-03-10T06:17:04.435Z,22.52
2019-03-10T06:18:13.100Z,22.49
2019-03-10T06:19:05.412Z,22.52
2019-03-10T06:20:04.415Z,22.51
2019-03-10T06:21:04.411Z,22.57
2019-03-10T06:22:04.379Z,22.51
2019-03-10T06:23:04.392Z,22.54
2019-03-10T06:24:04.357Z,22.51
2019-03-10T06:25:04.398Z,22.48
2019-03-10T06:26:04.374Z,22.51
2019-03-10T06:27:04.323Z,22.51
2019-03-10T06:28:04.312Z,22.51
2019-03-10T06:29:04.314Z,22.51
2019-03-10T06:30:04.290Z,22.48
2019-03-10T06:31:04.291Z,22.51
2019-03-10T06:32:04.300Z,22.54
2019-03-10T06:33:04.256Z,22.52
2019-03-10T06:34:04.246Z,22.49
2019-03-10T06:35:04.240Z,22.48
2019-03-10T06:36:04.259Z,22.54
2019-03-10T06:37:04.216Z,22.51
2019-03-10T06:38:04.200Z,22.49
2019-03-10T06:39:04.200Z,22.57
2019-03-10T06:40:04.185Z,22.51
2019-03-10T06:41:04.208Z,22.52
2019-03-10T06:42:04.154Z,22.52
2019-03-10T06:43:04.144Z,22.51
2019-03-10T06:44:04.132Z,22.51
2019-03-10T06:45:04.126Z,22.49
2019-03-10T06:46:04.144Z,22.45
2019-03-10T06:47:04.108Z,22.49
2019-03-10T06:48:04.095Z,22.49
2019-03-10T06:49:04.076Z,22.60
2019-03-10T06:50:04.067Z,22.51
2019-03-10T06:51:04.069Z,22.55
2019-03-10T06:52:04.043Z,22.51
2019-03-10T06:53:04.049Z,22.51
2019-03-10T06:54:04.021Z,22.52
2019-03-10T06:55:04.011Z,22.51
2019-03-10T06:56:04.009Z,22.49
2019-03-10T06:57:03.990Z,22.54
2019-03-10T06:58:03.979Z,22.52
2019-03-10T06:59:04.003Z,22.59
2019-03-10T07:00:03.953Z,22.49
2019-03-10T07:01:04.020Z,22.54
2019-03-10T07:02:03.936Z,22.51
2019-03-10T07:03:03.924Z,22.51
2019-03-10T07:04:03.911Z,22.51
2019-03-10T07:05:03.899Z,22.46
2019-03-10T07:06:03.888Z,22.49
2019-03-10T07:07:03.911Z,22.57
2019-03-10T07:08:03.864Z,22.54
2019-03-10T07:09:03.853Z,22.51
2019-03-10T07:10:03.858Z,22.51
2019-03-10T07:11:03.831Z,22.51
2019-03-10T07:12:03.841Z,22.49
2019-03-10T07:13:03.833Z,22.52
2019-03-10T07:14:03.800Z,22.54
2019-03-10T07:15:03.821Z,22.52
2019-03-10T07:16:03.781Z,22.51
2019-03-10T07:17:03.774Z,22.48
2019-03-10T07:18:03.755Z,22.52
2019-03-10T07:19:03.764Z,22.52
2019-03-10T07:20:03.733Z,22.48
2019-03-10T07:21:03.720Z,22.49
2019-03-10T07:22:03.733Z,22.48
2019-03-10T07:23:03.695Z,22.49
2019-03-10T07:24:03.709Z,22.49
2019-03-10T07:25:03.681Z,22.52
2019-03-10T07:26:03.671Z,22.48
2019-03-10T07:27:03.682Z,22.54
2019-03-10T07:28:03.643Z,22.49
2019-03-10T07:29:03.642Z,22.49
2019-03-10T07:30:03.621Z,22.51
2019-03-10T07:31:03.649Z,22.45
2019-03-10T07:32:03.615Z,22.52
2019-03-10T07:33:03.613Z,22.46
2019-03-10T07:34:03.574Z,22.51
2019-03-10T07:35:03.562Z,22.52
2019-03-10T07:36:03.553Z,22.54
2019-03-10T07:37:03.607Z,22.49
2019-03-10T07:38:03.528Z,22.48
2019-03-10T07:39:03.532Z,22.54
2019-03-10T07:40:03.506Z,22.42
2019-03-10T07:41:03.496Z,22.49
2019-03-10T07:42:03.767Z,22.49
2019-03-10T07:43:03.537Z,22.48
2019-03-10T07:44:03.469Z,22.46
2019-03-10T07:45:03.452Z,22.59
2019-03-10T07:46:03.439Z,22.55
2019-03-10T07:47:03.476Z,22.59
2019-03-10T07:48:03.422Z,22.46
2019-03-10T07:49:03.405Z,22.51
2019-03-10T07:50:03.407Z,22.51
2019-03-10T07:51:03.383Z,22.51
2019-03-10T07:52:03.384Z,22.49
2019-03-10T07:53:03.360Z,22.51
2019-03-10T07:54:03.360Z,22.51
2019-03-10T07:55:03.340Z,22.49
2019-03-10T07:56:03.328Z,22.54
2019-03-10T07:57:03.350Z,22.52
2019-03-10T07:58:03.304Z,22.51
2019-03-10T07:59:03.305Z,22.52
2019-03-10T08:00:03.282Z,22.51
2019-03-10T08:01:03.271Z,22.51
2019-03-10T08:02:03.270Z,22.51
2019-03-10T08:03:03.257Z,22.48
2019-03-10T08:04:03.239Z,22.48
2019-03-10T08:05:03.229Z,22.49
2019-03-10T08:06:03.216Z,22.51
2019-03-10T08:07:03.227Z,22.51
2019-03-10T08:08:03.193Z,22.39
2019-03-10T08:09:03.185Z,22.52
2019-03-10T08:10:03.177Z,22.51
2019-03-10T08:11:03.179Z,22.52
2019-03-10T08:12:03.152Z,22.48
2019-03-10T08:13:03.147Z,22.49
2019-03-10T08:14:03.131Z,22.48
2019-03-10T08:15:03.123Z,22.49
2019-03-10T08:16:03.112Z,22.51
2019-03-10T08:17:03.101Z,22.57
2019-03-10T08:18:03.094Z,22.51
2019-03-10T08:19:03.072Z,22.54
2019-03-10T08:20:03.058Z,22.51
2019-03-10T08:21:03.047Z,22.48
2019-03-10T08:22:03.039Z,22.51
2019-03-10T08:23:03.042Z,22.52
2019-03-10T08:24:03.019Z,22.54
2019-03-10T08:25:03.001Z,22.55
2019-03-10T08:26:02.993Z,22.49
2019-03-10T08:27:02.987Z,22.49
2019-03-10T08:28:02.995Z,22.52
2019-03-10T08:29:02.977Z,22.51
2019-03-10T08:30:02.950Z,22.51
2019-03-10T08:31:02.940Z,22.51
2019-03-10T08:32:09.975Z,22.55
2019-03-10T08:33:02.942Z,22.52
2019-03-10T08:34:09.914Z,22.52
2019-03-10T08:35:09.968Z,22.57
2019-03-10T08:36:02.879Z,22.46
2019-03-10T08:37:02.867Z,22.41
2019-03-10T08:38:02.873Z,22.48
2019-03-10T08:39:02.844Z,22.39
2019-03-10T08:40:02.833Z,22.46
2019-03-10T08:41:02.987Z,22.44
2019-03-10T08:42:02.987Z,22.46
2019-03-10T08:43:02.967Z,22.49
2019-03-10T08:44:02.832Z,22.49
2019-03-10T08:45:02.845Z,22.48
2019-03-10T08:46:02.815Z,22.52
2019-03-10T08:47:02.760Z,22.49
2019-03-10T08:48:02.833Z,22.55
2019-03-10T08:49:02.757Z,22.39
2019-03-10T08:50:02.861Z,22.52
2019-03-10T08:51:02.717Z,22.52
2019-03-10T08:52:02.745Z,22.51
2019-03-10T08:53:02.722Z,22.46
2019-03-10T08:54:02.744Z,22.49
2019-03-10T08:55:02.698Z,22.51
2019-03-10T08:56:05.522Z,22.52
2019-03-10T08:57:02.656Z,22.52
2019-03-10T08:58:02.647Z,22.59
2019-03-10T08:59:02.691Z,22.46
2019-03-10T09:00:02.661Z,22.49
2019-03-10T09:01:02.616Z,22.49
2019-03-10T09:02:02.688Z,22.44
2019-03-10T09:03:02.625Z,22.44
2019-03-10T09:04:02.924Z,22.44
2019-03-10T09:05:02.627Z,22.44
2019-03-10T09:06:02.585Z,22.39
2019-03-10T09:07:02.583Z,22.41
2019-03-10T09:08:02.530Z,22.44
2019-03-10T09:09:02.569Z,22.45
2019-03-10T09:10:02.523Z,22.42
2019-03-10T09:11:02.520Z,22.39
2019-03-10T09:12:02.494Z,22.42
2019-03-10T09:13:02.502Z,22.42
2019-03-10T09:14:02.512Z,22.39
2019-03-10T09:15:02.476Z,22.42
2019-03-10T09:16:02.557Z,22.45
2019-03-10T09:17:02.431Z,22.38
2019-03-10T09:18:02.445Z,22.41
2019-03-10T09:19:02.455Z,22.46
2019-03-10T09:20:02.433Z,22.38
2019-03-10T09:21:02.399Z,22.39
2019-03-10T09:22:02.379Z,22.49
2019-03-10T09:23:02.378Z,22.49
2019-03-10T09:24:02.399Z,22.45
2019-03-10T09:25:02.410Z,22.46
2019-03-10T09:26:02.371Z,22.39
2019-03-10T09:27:02.343Z,22.46
2019-03-10T09:28:02.321Z,22.44
2019-03-10T09:29:02.329Z,22.44
2019-03-10T09:30:02.311Z,22.49
2019-03-10T09:31:02.294Z,22.45
2019-03-10T09:32:02.291Z,22.44
2019-03-10T09:33:02.342Z,22.46
2019-03-10T09:34:02.324Z,22.49
2019-03-10T09:35:02.290Z,22.44
2019-03-10T09:36:02.275Z,22.51
2019-03-10T09:37:02.261Z,22.48
2019-03-10T09:38:03.793Z,22.48
2019-03-10T09:39:02.229Z,22.52
2019-03-10T09:40:02.228Z,22.39
2019-03-10T09:41:02.213Z,22.54
2019-03-10T09:42:02.158Z,22.51
2019-03-10T09:43:02.171Z,22.52
2019-03-10T09:44:03.888Z,22.49
2019-03-10T09:45:02.137Z,22.44
2019-03-10T09:46:02.122Z,22.52
2019-03-10T09:47:02.098Z,22.44
2019-03-10T09:48:02.132Z,22.49
2019-03-10T09:49:02.092Z,22.44
2019-03-10T09:50:02.096Z,22.48
2019-03-10T09:51:02.054Z,22.46
2019-03-10T09:52:02.062Z,22.49
2019-03-10T09:53:02.071Z,22.55
2019-03-10T09:54:02.064Z,22.51
2019-03-10T09:55:02.043Z,22.51
2019-03-10T09:56:01.998Z,22.49
2019-03-10T09:57:02.013Z,22.48
2019-03-10T09:58:02.018Z,22.52
2019-03-10T09:59:01.963Z,22.52
2019-03-10T10:00:01.985Z,22.54
2019-03-10T10:01:01.988Z,22.52
2019-03-10T10:02:01.948Z,22.51
2019-03-10T10:03:01.927Z,22.51
2019-03-10T10:04:02.041Z,22.52
2019-03-10T10:05:01.935Z,22.48
2019-03-10T10:06:01.907Z,22.48
2019-03-10T10:07:02.178Z,22.48
2019-03-10T10:08:01.865Z,22.49
2019-03-10T10:09:01.857Z,22.42
2019-03-10T10:10:01.853Z,22.52
2019-03-10T10:11:02.635Z,22.44
2019-03-10T10:12:12.711Z,22.48
2019-03-10T10:13:02.821Z,22.49
2019-03-10T10:14:01.950Z,22.52
2019-03-10T10:15:01.805Z,22.49
2019-03-10T10:16:01.813Z,22.51
2019-03-10T10:17:01.770Z,22.51
2019-03-10T10:18:01.751Z,22.51
2019-03-10T10:19:01.753Z,22.48
2019-03-10T10:20:01.773Z,22.48
2019-03-10T10:21:01.770Z,22.52
2019-03-10T10:22:01.886Z,22.48
2019-03-10T10:23:01.706Z,22.51
2019-03-10T10:24:01.721Z,22.60
2019-03-10T10:25:01.726Z,22.52
2019-03-10T10:26:01.767Z,22.54
2019-03-10T10:27:01.692Z,22.54
2019-03-10T10:28:01.665Z,22.55
2019-03-10T10:29:01.752Z,22.57
2019-03-10T10:30:01.672Z,22.54
2019-03-10T10:31:01.602Z,22.55
2019-03-10T10:32:01.607Z,22.57
2019-03-10T10:33:01.632Z,22.59
2019-03-10T10:34:01.630Z,22.52
2019-03-10T10:35:01.722Z,22.59
2019-03-10T10:36:01.645Z,22.61
2019-03-10T10:37:01.562Z,22.59
2019-03-10T10:38:01.525Z,22.46
2019-03-10T10:39:01.620Z,22.61
2019-03-10T10:40:01.533Z,22.61
2019-03-10T10:41:01.559Z,22.64
2019-03-10T10:42:01.501Z,22.61
2019-03-10T10:43:01.495Z,22.60
2019-03-10T10:44:01.505Z,22.61
2019-03-10T10:45:01.474Z,22.64
2019-03-10T10:46:01.494Z,22.59
2019-03-10T10:47:01.427Z,22.63
2019-03-10T10:48:01.450Z,22.64
2019-03-10T10:49:01.428Z,22.64
2019-03-10T10:50:01.391Z,22.57
2019-03-10T10:51:01.428Z,22.64
2019-03-10T10:52:01.442Z,22.64
2019-03-10T10:53:01.358Z,22.64
2019-03-10T10:54:01.354Z,22.54
2019-03-10T10:55:01.368Z,22.60
2019-03-10T10:56:01.340Z,22.60
2019-03-10T10:57:01.395Z,22.67
2019-03-10T10:58:01.311Z,22.61
2019-03-10T10:59:01.331Z,22.60
2019-03-10T11:00:01.317Z,22.60
2019-03-10T11:01:01.318Z,22.64
2019-03-10T11:02:01.274Z,22.64
2019-03-10T11:03:01.273Z,22.61
2019-03-10T11:04:01.253Z,22.67
2019-03-10T11:05:01.233Z,22.57
2019-03-10T11:06:01.266Z,22.59
2019-03-10T11:07:01.203Z,22.55
2019-03-10T11:08:01.213Z,22.57
2019-03-10T11:09:02.999Z,22.63
2019-03-10T11:10:01.209Z,22.55
2019-03-10T11:11:01.190Z,22.61
2019-03-10T11:12:01.171Z,22.54
2019-03-10T11:13:01.135Z,22.64
2019-03-10T11:14:01.162Z,22.69
2019-03-10T11:15:01.124Z,22.66
2019-03-10T11:16:01.144Z,22.63
2019-03-10T11:17:01.088Z,22.64
2019-03-10T11:18:08.863Z,22.75
2019-03-10T11:19:02.100Z,22.69
2019-03-10T11:20:01.061Z,22.75
2019-03-10T11:21:01.106Z,22.73
2019-03-10T11:22:01.132Z,22.70
2019-03-10T11:23:01.011Z,22.71
2019-03-10T11:24:01.010Z,22.76
2019-03-10T11:25:01.060Z,22.78
2019-03-10T11:26:01.018Z,22.73
2019-03-10T11:27:01.093Z,22.67
2019-03-10T11:28:01.056Z,22.73
2019-03-10T11:29:03.791Z,22.70
2019-03-10T11:30:00.934Z,22.75
2019-03-10T11:31:01.475Z,22.70
2019-03-10T11:32:00.935Z,22.76
2019-03-10T11:33:00.976Z,22.69
2019-03-10T11:34:01.059Z,22.71
2019-03-10T11:35:00.936Z,22.71
2019-03-10T11:36:00.954Z,22.71
2019-03-10T11:37:00.903Z,22.73
2019-03-10T11:38:00.881Z,22.76
2019-03-10T11:39:00.933Z,22.73
2019-03-10T11:40:00.976Z,22.78
2019-03-10T11:41:00.886Z,22.82
2019-03-10T11:42:00.919Z,22.76
2019-03-10T11:43:00.836Z,22.79
2019-03-10T11:44:00.778Z,22.75
2019-03-10T11:45:00.764Z,22.86
2019-03-10T11:46:00.750Z,22.71
2019-03-10T11:47:00.757Z,22.76
2019-03-10T11:48:00.737Z,22.85
2019-03-10T11:49:00.715Z,22.85
2019-03-10T11:50:00.700Z,22.81
2019-03-10T11:51:00.695Z,22.79
2019-03-10T11:52:01.482Z,22.76
2019-03-10T11:53:00.770Z,22.75
2019-03-10T11:54:00.692Z,22.78
2019-03-10T11:55:00.684Z,22.81
2019-03-10T11:56:00.659Z,22.88
2019-03-10T11:57:00.694Z,22.86
2019-03-10T11:58:00.676Z,22.92
2019-03-10T11:59:00.775Z,22.85
2019-03-10T12:00:00.663Z,22.88
2019-03-10T12:01:00.665Z,22.85
2019-03-10T12:02:00.705Z,22.85
2019-03-10T12:03:00.588Z,22.92
2019-03-10T12:04:00.599Z,22.89
2019-03-10T12:05:00.614Z,22.89
2019-03-10T12:06:00.557Z,22.91
2019-03-10T12:07:00.699Z,22.81
2019-03-10T12:08:00.596Z,22.88
2019-03-10T12:09:00.554Z,22.89
2019-03-10T12:10:00.638Z,22.92
2019-03-10T12:11:00.498Z,22.86
2019-03-10T12:12:00.559Z,22.89
2019-03-10T12:13:00.485Z,22.92
2019-03-10T12:14:00.468Z,22.92
2019-03-10T12:15:00.525Z,22.91
2019-03-10T12:16:00.477Z,22.92
2019-03-10T12:17:00.441Z,22.99
2019-03-10T12:18:00.437Z,22.89
2019-03-10T12:19:00.411Z,22.84
2019-03-10T12:20:00.509Z,22.91
2019-03-10T12:21:00.407Z,22.89
2019-03-10T12:22:00.473Z,22.97
2019-03-10T12:23:00.346Z,22.85
2019-03-10T12:24:00.400Z,22.88
2019-03-10T12:25:00.425Z,23.01
2019-03-10T12:26:00.466Z,23.03
2019-03-10T12:27:00.377Z,22.92
2019-03-10T12:28:00.334Z,23.01
2019-03-10T12:29:00.413Z,23.03
2019-03-10T12:30:00.498Z,22.92
2019-03-10T12:31:00.248Z,22.89
2019-03-10T12:32:00.362Z,22.89
2019-03-10T12:33:00.221Z,22.94
2019-03-10T12:34:00.210Z,22.97
2019-03-10T12:35:00.418Z,22.85
2019-03-10T12:36:00.188Z,22.88
2019-03-10T12:37:00.207Z,22.94
2019-03-10T12:38:00.166Z,22.91
2019-03-10T12:39:00.153Z,22.94
2019-03-10T12:40:00.508Z,22.92
2019-03-10T12:41:00.289Z,22.92
2019-03-10T12:42:00.167Z,22.91
2019-03-10T12:43:00.181Z,22.94
2019-03-10T12:44:00.244Z,23.03
2019-03-10T12:45:00.935Z,22.97
2019-03-10T12:46:00.086Z,22.96
2019-03-10T12:47:00.145Z,22.94
2019-03-10T12:48:00.074Z,22.94
2019-03-10T12:49:00.045Z,23.00
2019-03-10T12:50:00.037Z,22.88
2019-03-10T12:51:00.027Z,22.88
2019-03-10T12:52:00.111Z,23.00